Rincon, GA (31326)

12:07 PM EDT on July 29, 2016 (GMT -0400)
Rice Hope Plantation | | Change Station

Elev 30 ft 32.23 °N, 81.19 °W | Updated 8 minutes ago

Partly Cloudy
Partly Cloudy
95.2 °F
Feels Like 110 °F
N
1.0
Wind Variable Wind from North
Gusts 7.0 mph

Today
High -- | Low -- °F
--% Chance of Precip.
Yesterday
High -- | Low -- °F
Precip. -- in
Pressure 30.01 in
Visibility 10.0 miles
Clouds Few 4000 ft
Few 25000 ft
Heat Index 110 °F
Dew Point 77 °F
Humidity 56%
Rainfall 0.00 in
Snow Depth Not available.
6:38 AM 8:24 PM
Waning Crescent, 21% visible
METAR KSAV 291553Z 29007KT 10SM FEW040 FEW250 34/21 A3001 RMK AO2 SLP160 T03390211
Pressure 30.01 in
Visibility 10.0 miles
Clouds Few 4000 ft
Few 25000 ft
Heat Index 110 °F
Dew Point 77 °F
Humidity 56%
Rainfall 0.00 in
Snow Depth Not available.
6:38 AM 8:24 PM
Waning Crescent, 21% visible
METAR KSAV 291553Z 29007KT 10SM FEW040 FEW250 34/21 A3001 RMK AO2 SLP160 T03390211

10-Day Weather Forecast

Almanac

Astronomy

Jul. 29, 2016 Rise Set
Actual Time
Civil Twilight
Nautical Twilight
Astronomical Twilight
Moon
Length of Visible Light
Length of Day
Tomorrow will be .
, % of the Moon is Illuminated

Today's Extremes

State Highs State Lows

Community

WunderPhotos

Upload Photos

1,928,358 photos uploaded!

WunderBlog® & News

Nearby

Air Quality

  Air Quality AQ Index Pollutant
Not available.

Snow Depth

Station Depth Elevation

Earthquake Activity

City Distance Mag. Time & Date
Minimum magnitude displayed is 2.5.

Coastal Water Temperatures

Place Temperature

Stations

Nearby Weather Stations

Station Location Temp. Windchill Dew Point Humidity Wind Precip. Elev Updated Type
                   

Watches & Warnings

There are currently no watches in effect.